Latest Weather Observations for Kempsey Airport

IDN60801

Issued at 1:32 pm EST Friday 4 September 2015 (issued every 30 minutes, with the page automatically refreshed every 10 minutes)

About weather observations | Map of weather stations | Latest weather observations for NSW | Other Formats
Station Details ID: 059007 Name: KEMPSEY AIRPORT AWS Lat: -31.07 Lon: 152.77 Height: 13.0 m
Data from the previous 72 hours. | See also: Recent months at Kempsey Airport
Date/Time
EST
Temp
°C
App
Temp
°C
Dew
Point
Rel
Hum
%
Delta-T
°C
Wind Press
QNH
hPa
Press
MSL
hPa
Rain
since 9 am
mm
Dir
 
Spd
km/h
Gust
km/h
Spd
kts
Gust
kts
04/01:30pm 16.9 13.7 12.0 73 2.7 SSE 20 28 11 15 1019.3 1019.3 0.0
04/01:00pm 16.5 13.8 13.0 80 1.9 S 19 26 10 14 1019.4 1019.4 0.0
04/12:30pm 18.6 17.0 12.8 69 3.3 WSW 13 19 7 10 1019.3 1019.3 0.0
04/12:00pm 16.6 15.4 13.9 84 1.5 SSW 13 17 7 9 1019.7 1019.7 0.0
04/11:30am 15.5 12.6 12.8 84 1.5 SW 20 26 11 14 1020.4 1020.4 0.0
04/11:00am 17.1 14.1 12.0 72 2.8 SW 19 26 10 14 1020.4 1020.4 0.0
04/10:30am 17.9 14.4 11.0 64 3.7 SSW 20 33 11 18 1020.1 1020.1 0.0
04/10:00am 18.7 14.9 11.3 62 4.0 SSW 22 35 12 19 1019.8 1019.8 0.0
04/09:30am 18.3 14.4 10.9 62 4.0 SSW 22 37 12 20 1019.6 1019.6 0.0
04/09:00am 17.1 12.8 10.7 66 3.4 SW 24 33 13 18 1019.4 1019.4 0.2
04/08:30am 17.6 14.0 11.8 69 3.2 SW 22 33 12 18 1019.0 1019.0 0.2
04/08:00am 16.1 12.6 10.8 71 2.8 SW 20 26 11 14 1018.6 1018.6 0.2
04/07:30am 15.2 12.2 10.8 75 2.3 SW 17 20 9 11 1017.9 1017.9 0.2
04/07:00am 14.0 10.9 10.4 79 1.9 SW 17 22 9 12 1017.4 1017.4 0.2
04/06:30am 15.0 10.3 9.1 68 3.0 SW 24 33 13 18 1016.7 1016.7 0.2
04/06:00am 14.4 10.3 8.6 68 2.9 SW 20 33 11 18 1016.0 1016.0 0.2
04/05:30am 14.8 9.5 8.3 65 3.3 SW 26 39 14 21 1015.4 1015.4 0.2
04/05:00am 15.0 9.2 7.8 62 3.6 SW 28 39 15 21 1014.9 1014.9 0.2
04/04:30am 15.4 11.3 7.9 61 3.8 SW 19 33 10 18 1014.5 1014.5 0.2
04/04:00am 15.4 10.6 7.2 58 4.0 SW 22 28 12 15 1013.9 1013.9 0.2
04/03:30am 15.2 9.6 7.0 58 4.0 SW 26 35 14 19 1014.0 1014.0 0.2
04/03:00am 15.3 11.2 6.1 54 4.4 WSW 17 30 9 16 1013.4 1013.4 0.2
04/02:30am 14.1 10.4 4.4 52 4.5 W 13 19 7 10 1013.3 1013.3 0.2
04/02:00am 14.4 9.9 4.4 51 4.6 WNW 17 26 9 14 1013.2 1013.2 0.2
04/01:30am 13.9 9.0 3.9 51 4.5 WNW 19 24 10 13 1013.3 1013.3 0.2
04/01:00am 13.8 8.9 4.1 52 4.4 WNW 19 24 10 13 1013.1 1013.1 0.2
04/12:30am 12.4 8.6 5.6 63 3.2 W 15 20 8 11 1013.0 1013.0 0.2
04/12:00am 8.2 3.9 5.1 81 1.4 WSW 17 20 9 11 1012.7 1012.7 0.2
 
Date/Time
EST
Temp
°C
App
Temp
°C
Dew
Point
Rel
Hum
%
Delta-T
°C
Wind Press
QNH
hPa
Press
MSL
hPa
Rain
since 9 am
mm
Dir
 
Spd
km/h
Gust
km/h
Spd
kts
Gust
kts
03/11:30pm 6.4 3.4 4.2 86 0.9 WSW 9 11 5 6 1012.7 1012.7 0.2
03/11:00pm 7.4 5.5 4.9 84 1.1 SW 4 11 2 6 1012.6 1012.6 0.2
03/10:30pm 7.9 6.7 4.7 80 1.4 CALM 0 6 0 3 1012.6 1012.6 0.2
03/10:00pm 8.7 5.0 4.7 76 1.8 WSW 13 15 7 8 1012.4 1012.4 0.2
03/09:30pm 11.1 7.4 4.6 64 2.9 WSW 13 17 7 9 1011.9 1011.9 0.2
03/09:00pm 14.6 10.0 5.4 54 4.4 WNW 19 24 10 13 1011.4 1011.4 0.2
03/08:30pm 11.0 7.5 5.5 69 2.5 W 13 15 7 8 1011.3 1011.3 0.2
03/08:00pm 13.1 9.8 4.5 56 3.9 SW 11 15 6 8 1011.4 1011.4 0.2
03/07:30pm 11.5 8.9 4.3 61 3.2 S 7 9 4 5 1011.0 1011.0 0.2
03/07:00pm 12.7 10.2 3.9 55 4.0 SSW 6 7 3 4 1010.5 1010.5 0.2
03/06:30pm 14.1 10.6 3.6 49 4.8 W 11 15 6 8 1009.7 1009.7 0.2
03/06:00pm 15.0 11.2 3.8 47 5.1 W 13 19 7 10 1009.1 1009.1 0.2
03/05:30pm 16.4 11.1 3.1 41 6.1 W 20 26 11 14 1008.5 1008.5 0.2
03/05:00pm 17.4 12.2 3.3 39 6.5 W 20 32 11 17 1008.5 1008.5 0.2
03/04:32pm 17.3 9.6 3.2 39 6.5 WNW 33 54 18 29 1007.8 1007.8 0.2
03/04:30pm 17.4 9.7 3.3 39 6.5 WNW 33 50 18 27 1007.8 1007.8 0.2
03/04:00pm 19.5 12.9 4.0 36 7.4 W 28 46 15 25 1007.4 1007.4 0.2
03/03:30pm 18.9 12.9 3.5 36 7.2 W 24 37 13 20 1006.7 1006.7 0.2
03/03:00pm 20.2 13.7 2.5 31 8.3 NW 26 39 14 21 1006.0 1006.0 0.2
03/02:30pm 21.1 14.4 1.4 27 9.0 WNW 26 44 14 24 1005.2 1005.1 0.2
03/02:00pm 22.2 16.8 1.3 25 9.7 WNW 19 28 10 15 1004.5 1004.4 0.2
03/01:30pm 23.8 16.5 0.2 21 10.8 W 28 41 15 22 1004.2 1004.1 0.2
03/01:00pm 23.2 17.0 2.1 25 10.0 WNW 24 43 13 23 1004.6 1004.5 0.2
03/12:32pm 23.2 15.8 2.1 25 10.0 WNW 30 50 16 27 1005.1 1005.0 0.2
03/12:30pm 23.3 16.2 3.3 27 9.7 WNW 30 46 16 25 1005.1 1005.0 0.2
03/12:07pm 22.8 16.5 3.9 29 9.2 WNW 26 48 14 26 1005.3 1005.3 0.2
03/12:04pm 22.1 16.6 4.2 31 8.7 WNW 22 48 12 26 1005.4 1005.4 0.2
03/12:00pm 22.2 18.8 7.6 39 7.6 WNW 15 30 8 16 1005.5 1005.5 0.2
03/11:30am 21.9 18.4 8.8 43 7.0 NNW 17 26 9 14 1005.7 1005.7 0.2
03/11:00am 21.2 18.1 10.4 50 5.9 NW 17 24 9 13 1006.2 1006.2 0.2
03/10:30am 20.4 18.1 10.5 53 5.4 NNW 13 22 7 12 1006.9 1006.9 0.2
03/10:00am 19.4 19.2 12.9 66 3.7 NW 6 11 3 6 1007.6 1007.6 0.0
03/09:30am 17.3 16.9 13.0 76 2.4 WNW 7 11 4 6 1008.0 1008.0 0.0
03/09:00am 16.5 16.1 13.0 80 2.0 NW 7 15 4 8 1008.1 1008.1 5.0
03/08:30am 15.6 15.2 12.4 81 1.8 NW 6 9 3 5 1008.2 1008.2 5.0
03/08:00am 14.6 14.1 12.6 88 1.1 NNW 7 11 4 6 1008.2 1008.2 5.0
03/07:30am 13.4 12.9 12.1 92 0.7 WNW 6 9 3 5 1008.7 1008.7 5.0
03/07:00am 12.0 11.2 11.1 94 0.5 WNW 6 11 3 6 1008.4 1008.4 5.0
03/06:30am 11.2 10.1 10.1 93 0.6 SSW 6 11 3 6 1008.3 1008.3 4.8
03/06:00am 11.1 9.4 10.0 93 0.6 SSW 9 15 5 8 1008.7 1008.7 3.4
03/05:30am 10.6 9.3 9.2 91 0.7 NW 6 15 3 8 1008.2 1008.2 0.6
03/05:00am 10.4 8.1 9.0 91 0.7 WNW 11 13 6 7 1007.8 1007.8 0.6
03/04:30am 10.1 8.1 8.7 91 0.7 NW 9 13 5 7 1007.1 1007.1 0.6
03/04:00am 10.3 7.6 8.9 91 0.7 WNW 13 15 7 8 1006.6 1006.6 0.6
03/03:38am 11.2 8.6 9.5 89 0.9 ENE 13 22 7 12 1005.4 1005.4 0.6
03/03:30am 11.4 9.3 9.7 89 0.9 NE 11 20 6 11 1007.4 1007.4 0.4
03/03:00am 10.3 7.9 8.7 90 0.8 WSW 11 19 6 10 1008.3 1008.3 0.0
03/02:30am 9.8 9.4 8.1 89 0.8 CALM 0 9 0 5 1008.4 1008.4 0.0
03/02:00am 9.7 7.2 8.1 90 0.8 W 11 13 6 7 1008.7 1008.7 0.0
03/01:30am 8.8 6.8 7.1 89 0.8 WSW 7 11 4 6 1008.5 1008.5 0.0
03/01:00am 9.9 8.1 7.8 87 1.0 SSW 7 9 4 5 1009.2 1009.2 0.0
03/12:30am 9.6 9.1 7.9 89 0.8 CALM 0 0 0 0 1010.0 1010.0 0.0
03/12:00am 9.6 8.4 7.9 89 0.8 SSW 4 9 2 5 1011.2 1011.2 0.0
 
Date/Time
EST
Temp
°C
App
Temp
°C
Dew
Point
Rel
Hum
%
Delta-T
°C
Wind Press
QNH
hPa
Press
MSL
hPa
Rain
since 9 am
mm
Dir
 
Spd
km/h
Gust
km/h
Spd
kts
Gust
kts
02/11:30pm 9.9 9.1 8.3 90 0.8 NNW 2 7 1 4 1011.8 1011.8 0.0
02/11:00pm 9.9 8.8 8.3 90 0.8 SW 4 9 2 5 1011.8 1011.8 0.0
02/10:30pm 9.9 8.2 8.3 90 0.8 WSW 7 9 4 5 1012.4 1012.4 0.0
02/10:00pm 10.6 8.4 9.4 92 0.6 NW 11 17 6 9 1012.8 1012.8 0.0
02/09:30pm 8.9 7.6 7.7 92 0.6 NW 4 9 2 5 1012.9 1012.9 0.0
02/09:00pm 8.9 8.2 7.0 88 0.9 CALM 0 0 0 0 1012.9 1012.9 0.0
02/08:30pm 10.1 9.7 8.4 89 0.8 CALM 0 0 0 0 1013.7 1013.7 0.0
02/08:00pm 10.5 9.0 8.3 86 1.1 W 6 13 3 7 1013.8 1013.8 0.0
02/07:30pm 12.1 12.1 9.7 85 1.2 CALM 0 0 0 0 1013.7 1013.7 0.0
02/07:00pm 11.9 11.6 8.7 81 1.6 CALM 0 0 0 0 1014.1 1014.1 0.0
02/06:30pm 13.3 12.3 8.8 74 2.3 NNW 4 7 2 4 1013.9 1013.9 0.0
02/06:00pm 14.8 13.0 9.4 70 2.8 N 9 11 5 6 1013.9 1013.9 0.0
02/05:30pm 16.8 14.1 10.2 65 3.5 NNE 15 20 8 11 1013.9 1013.9 0.0
02/05:00pm 17.9 15.0 9.8 59 4.3 NNE 15 22 8 12 1013.6 1013.6 0.0
02/04:30pm 18.7 14.7 8.4 51 5.3 NE 19 24 10 13 1013.5 1013.5 0.0
02/04:00pm 19.8 15.4 6.5 42 6.7 NNE 19 28 10 15 1013.7 1013.7 0.0
02/03:30pm 20.3 15.7 5.5 38 7.3 NE 19 24 10 13 1013.9 1013.9 0.0
02/03:00pm 20.2 15.3 5.1 37 7.4 NE 20 30 11 16 1013.9 1013.9 0.0
02/02:30pm 20.1 16.4 6.1 40 7.0 NE 15 24 8 13 1014.1 1014.1 0.0
02/02:00pm 20.5 16.9 4.9 36 7.6 NE 13 24 7 13 1014.6 1014.6 0.0
02/01:30pm 19.7 15.6 4.6 37 7.3 NNE 15 20 8 11 1015.0 1015.0 0.0
02/01:00pm 19.9 16.2 4.4 36 7.5 NNE 13 19 7 10 1015.4 1015.4 0.0
02/12:30pm 20.0 15.7 3.3 33 7.9 NNE 15 33 8 18 1016.3 1016.3 0.0
02/12:00pm 18.6 15.5 3.6 37 7.0 NW 9 15 5 8 1017.2 1017.2 0.0
02/11:30am 16.8 14.6 5.1 46 5.6 NW 6 11 3 6 1017.6 1017.6 0.0
02/11:00am 15.8 13.3 4.8 48 5.2 W 7 13 4 7 1018.3 1018.3 0.0
02/10:30am 14.7 12.0 5.8 55 4.2 WNW 9 13 5 7 1018.8 1018.8 0.0
02/10:00am 13.2 9.4 5.6 60 3.6 NW 15 22 8 12 1019.3 1019.3 0.0
02/09:30am 12.3 8.4 5.5 63 3.2 WNW 15 20 8 11 1019.5 1019.5 0.0
02/09:00am 10.4 7.9 4.8 68 2.5 WNW 7 11 4 6 1019.1 1019.1 0.0
02/08:30am 9.4 7.5 4.8 73 2.1 WSW 4 9 2 5 1019.5 1019.5 0.0
02/08:00am 8.9 6.0 4.9 76 1.8 W 9 15 5 8 1019.4 1019.4 0.0
02/07:30am 7.9 4.9 4.1 77 1.6 W 9 13 5 7 1019.3 1019.3 0.0
02/07:00am 6.5 4.4 4.0 84 1.1 W 4 11 2 6 1019.2 1019.2 0.0
02/06:30am 3.7 0.7 1.9 88 0.7 WSW 7 9 4 5 1018.7 1018.7 0.0
02/06:00am 3.1 -0.3 1.8 91 0.5 W 9 11 5 6 1018.4 1018.4 0.0
02/05:30am 2.6 -0.5 1.4 92 0.5 WSW 7 9 4 5 1017.8 1017.8 0.0
02/05:00am 3.2 0.2 1.7 90 0.6 WSW 7 11 4 6 1017.2 1017.2 0.0
02/04:30am 4.1 1.3 1.8 85 0.9 SW 6 9 3 5 1017.4 1017.4 0.0
02/04:00am 5.0 1.8 3.0 87 0.8 WNW 9 15 5 8 1017.4 1017.4 0.0
02/03:30am 4.3 1.6 2.5 88 0.7 SW 6 9 3 5 1017.0 1017.0 0.0
02/03:00am 4.7 2.1 3.2 90 0.6 WSW 6 7 3 4 1017.1 1017.1 0.0
02/02:30am 4.9 2.1 3.1 88 0.7 W 7 9 4 5 1017.2 1017.2 0.0
02/02:00am 6.1 3.1 4.3 88 0.8 W 9 13 5 7 1017.3 1017.3 0.0
02/01:30am 5.7 3.1 4.2 90 0.6 WSW 7 9 4 5 1017.1 1017.1 0.0
02/01:00am 6.0 4.8 4.6 91 0.6 CALM 0 0 0 0 1017.1 1017.1 0.0
02/12:30am 6.1 3.2 4.9 92 0.5 W 9 13 5 7 1017.1 1017.1 0.0
02/12:00am 5.1 2.0 3.6 90 0.6 W 9 9 5 5 1016.8 1016.8 0.0
 
Date/Time
EST
Temp
°C
App
Temp
°C
Dew
Point
Rel
Hum
%
Delta-T
°C
Wind Press
QNH
hPa
Press
MSL
hPa
Rain
since 9 am
mm
Dir
 
Spd
km/h
Gust
km/h
Spd
kts
Gust
kts
01/11:30pm 6.2 3.3 4.8 91 0.6 WSW 9 11 5 6 1017.0 1017.0 0.0
01/11:00pm 5.6 3.0 4.1 90 0.6 WSW 7 11 4 6 1016.9 1016.9 0.0
01/10:30pm 5.9 2.9 4.1 88 0.8 WSW 9 11 5 6 1016.9 1016.9 0.0
01/10:00pm 6.8 5.4 5.3 90 0.7 WSW 2 7 1 4 1016.8 1016.8 0.0
01/09:30pm 7.1 5.6 5.1 87 0.9 WSW 2 9 1 5 1016.7 1016.7 0.0
01/09:00pm 8.0 5.8 6.0 87 0.9 W 7 9 4 5 1016.5 1016.5 0.0
01/08:30pm 9.0 6.8 6.1 82 1.3 W 7 9 4 5 1016.1 1016.1 0.0
01/08:00pm 8.1 5.9 5.2 82 1.3 W 6 9 3 5 1016.0 1016.0 0.0
01/07:30pm 9.1 6.8 5.8 80 1.5 WSW 7 9 4 5 1015.7 1015.7 0.0
01/07:00pm 10.4 9.6 6.4 76 1.9 CALM 0 0 0 0 1015.3 1015.3 0.0
01/06:30pm 11.9 11.0 6.2 68 2.7 CALM 0 0 0 0 1015.0 1015.0 0.0
01/06:00pm 13.0 11.4 6.4 64 3.1 SSE 4 7 2 4 1014.8 1014.8 0.0
01/05:30pm 15.0 12.4 6.0 55 4.3 ESE 9 13 5 7 1014.2 1014.2 0.0
01/05:00pm 16.8 13.4 6.0 49 5.3 ESE 13 19 7 10 1013.8 1013.8 0.0
01/04:30pm 17.9 13.7 5.8 45 5.9 E 17 22 9 12 1013.3 1013.3 0.0
01/04:00pm 18.6 14.0 5.8 43 6.3 E 19 26 10 14 1012.9 1012.9 0.0
01/03:30pm 19.3 14.1 5.4 40 6.8 E 22 28 12 15 1012.5 1012.5 0.0
01/03:00pm 21.2 18.1 5.5 36 7.8 ESE 11 19 6 10 1012.2 1012.2 0.0
01/02:30pm 21.6 18.8 2.3 28 9.0 ENE 6 11 3 6 1012.2 1012.2 0.0
01/02:00pm 22.0 19.8 3.6 30 8.9 S 4 9 2 5 1012.5 1012.5 0.0

Other Formats:

Comma delimited format used in spreadsheet applications
http://www.bom.gov.au/fwo/IDN60801/IDN60801.94785.axf

JavaScript Object Notation format (JSON) in row-major order
http://www.bom.gov.au/fwo/IDN60801/IDN60801.94785.json